createdAt,value
2018-05-17T00:02:06.444Z,101500.27
2018-05-17T00:04:34.049Z,101507.33
2018-05-17T00:07:01.713Z,101507.35
2018-05-17T00:09:29.317Z,101509.98
2018-05-17T00:11:56.947Z,101511.54
2018-05-17T00:14:24.569Z,101518.59
2018-05-17T00:16:52.233Z,101519.98
2018-05-17T00:19:19.865Z,101519.80
2018-05-17T00:21:47.495Z,101528.44
2018-05-17T00:24:15.123Z,101531.19
2018-05-17T00:26:42.714Z,101537.17
2018-05-17T00:29:10.364Z,101533.70
2018-05-17T00:31:37.959Z,101530.65
2018-05-17T00:34:05.590Z,101539.02
2018-05-17T00:36:33.198Z,101537.50
2018-05-17T00:39:00.833Z,101540.09
2018-05-17T00:41:28.441Z,101548.08
2018-05-17T00:43:56.069Z,101550.34
2018-05-17T00:46:23.758Z,101550.62
2018-05-17T00:48:51.406Z,101549.33
2018-05-17T00:51:19.010Z,101552.13
2018-05-17T00:53:46.640Z,101554.00
2018-05-17T00:56:14.240Z,101556.55
2018-05-17T00:58:41.987Z,101558.06
2018-05-17T01:01:09.585Z,101556.42
2018-05-17T01:03:37.222Z,101557.44
2018-05-17T01:06:04.859Z,101561.30
2018-05-17T01:08:32.449Z,101564.17
2018-05-17T01:11:00.085Z,101558.33
2018-05-17T01:13:27.712Z,101557.39
2018-05-17T01:15:55.344Z,101568.89
2018-05-17T01:18:22.964Z,101559.11
2018-05-17T01:20:50.596Z,101564.20
2018-05-17T01:23:18.220Z,101563.86
2018-05-17T01:25:45.903Z,101566.41
2018-05-17T01:28:13.503Z,101567.91
2018-05-17T01:30:41.145Z,101563.56
2018-05-17T01:33:08.821Z,101568.86
2018-05-17T01:35:36.473Z,101577.59
2018-05-17T01:38:15.576Z,101580.91
2018-05-17T01:40:43.207Z,101580.05
2018-05-17T01:43:10.803Z,101585.39
2018-05-17T01:45:38.566Z,101591.62
2018-05-17T01:48:06.180Z,101589.06
2018-05-17T01:50:33.797Z,101584.38
2018-05-17T01:53:01.452Z,101585.73
2018-05-17T01:55:29.129Z,101579.80
2018-05-17T01:57:56.777Z,101589.11
2018-05-17T02:00:24.373Z,101590.94
2018-05-17T02:02:52.009Z,101587.08
2018-05-17T02:05:19.763Z,101599.84
2018-05-17T02:07:47.408Z,101595.36
2018-05-17T02:10:15.098Z,101603.97
2018-05-17T02:12:42.752Z,101601.11
2018-05-17T02:15:10.352Z,101609.06
2018-05-17T02:17:38.113Z,101606.97
2018-05-17T02:20:05.717Z,101606.14
2018-05-17T02:22:33.357Z,101606.72
2018-05-17T02:25:00.967Z,101604.62
2018-05-17T02:27:28.573Z,101606.86
2018-05-17T02:29:56.228Z,101609.77
2018-05-17T02:32:23.827Z,101607.94
2018-05-17T02:34:51.498Z,101607.58
2018-05-17T02:37:19.081Z,101610.07
2018-05-17T02:39:46.725Z,101608.13
2018-05-17T02:42:14.343Z,101607.19
2018-05-17T02:44:42.033Z,101607.95
2018-05-17T02:47:09.629Z,101612.55
2018-05-17T02:49:37.277Z,101611.47
2018-05-17T02:52:04.930Z,101614.13
2018-05-17T02:54:32.592Z,101611.61
2018-05-17T02:57:00.325Z,101612.25
2018-05-17T02:59:27.893Z,101618.30
2018-05-17T03:01:55.509Z,101618.21
2018-05-17T03:04:23.145Z,101621.16
2018-05-17T03:06:50.735Z,101623.86
2018-05-17T03:09:18.433Z,101620.81
2018-05-17T03:11:46.073Z,101624.06
2018-05-17T03:14:13.719Z,101617.77
2018-05-17T03:16:41.353Z,101625.53
2018-05-17T03:19:08.988Z,101631.28
2018-05-17T03:21:36.741Z,101626.50
2018-05-17T03:24:04.342Z,101634.55
2018-05-17T03:26:31.985Z,101631.96
2018-05-17T03:28:59.666Z,101632.29
2018-05-17T03:31:27.352Z,101634.69
2018-05-17T03:33:54.974Z,101640.94
2018-05-17T03:36:22.635Z,101646.98
2018-05-17T03:38:50.298Z,101641.55
2018-05-17T03:41:17.989Z,101643.21
2018-05-17T03:43:45.597Z,101646.66
2018-05-17T03:46:13.242Z,101642.00
2018-05-17T03:48:40.833Z,101641.66
2018-05-17T03:51:08.482Z,101638.70
2018-05-17T03:53:36.204Z,101638.45
2018-05-17T03:56:03.870Z,101638.84
2018-05-17T03:58:31.484Z,101646.47
2018-05-17T04:01:10.777Z,101642.16
2018-05-17T04:03:50.032Z,101646.58
2018-05-17T04:06:29.348Z,101651.63
2018-05-17T04:08:56.988Z,101651.93
2018-05-17T04:11:24.629Z,101650.98
2018-05-17T04:13:52.320Z,101648.89
2018-05-17T04:16:19.848Z,101652.28
2018-05-17T04:18:47.499Z,101652.31
2018-05-17T04:21:15.116Z,101651.22
2018-05-17T04:23:42.756Z,101650.25
2018-05-17T04:26:10.373Z,101644.67
2018-05-17T04:28:38.085Z,101645.44
2018-05-17T04:31:05.688Z,101656.15
2018-05-17T04:33:33.504Z,101658.05
2018-05-17T04:36:01.101Z,101663.80
2018-05-17T04:38:28.789Z,101668.11
2018-05-17T04:40:56.506Z,101665.48
2018-05-17T04:43:24.158Z,101664.59
2018-05-17T04:45:51.885Z,101664.45
2018-05-17T04:48:19.517Z,101665.89
2018-05-17T04:50:47.180Z,101662.34
2018-05-17T04:53:14.826Z,101671.02
2018-05-17T04:55:42.429Z,101678.56
2018-05-17T04:58:10.068Z,101670.03
2018-05-17T05:00:37.729Z,101671.03
2018-05-17T05:03:05.331Z,101667.95
2018-05-17T05:05:33.032Z,101676.70
2018-05-17T05:08:00.664Z,101670.05
2018-05-17T05:10:28.322Z,101668.98
2018-05-17T05:12:55.928Z,101669.09
2018-05-17T05:15:23.616Z,101668.39
2018-05-17T05:17:51.220Z,101675.09
2018-05-17T05:20:18.862Z,101674.89
2018-05-17T05:22:46.516Z,101666.78
2018-05-17T05:25:14.235Z,101664.51
2018-05-17T05:27:41.824Z,101666.66
2018-05-17T05:30:09.450Z,101671.53
2018-05-17T05:32:37.091Z,101670.59
2018-05-17T05:35:04.700Z,101672.20
2018-05-17T05:37:32.411Z,101670.26
2018-05-17T05:39:59.989Z,101671.69
2018-05-17T05:42:27.655Z,101673.75
2018-05-17T05:44:55.294Z,101673.56
2018-05-17T05:47:22.944Z,101673.94
2018-05-17T05:49:50.536Z,101681.45
2018-05-17T05:52:18.172Z,101681.72
2018-05-17T05:54:45.805Z,101685.97
2018-05-17T05:57:13.449Z,101686.38
2018-05-17T05:59:41.059Z,101691.05
2018-05-17T06:02:08.653Z,101694.37
2018-05-17T06:04:36.314Z,101693.44
2018-05-17T06:07:03.936Z,101694.37
2018-05-17T06:09:31.699Z,101689.92
2018-05-17T06:11:59.308Z,101692.18
2018-05-17T06:14:27.029Z,101694.50
2018-05-17T06:16:54.637Z,101699.15
2018-05-17T06:19:22.288Z,101695.92
2018-05-17T06:21:50.017Z,101697.87
2018-05-17T06:24:17.675Z,101695.17
2018-05-17T06:26:45.288Z,101700.84
2018-05-17T06:29:12.936Z,101697.00
2018-05-17T06:31:40.552Z,101703.39
2018-05-17T06:34:08.210Z,101704.92
2018-05-17T06:36:35.820Z,101702.10
2018-05-17T06:39:03.446Z,101704.43
2018-05-17T06:41:31.054Z,101698.91
2018-05-17T06:43:58.740Z,101697.06
2018-05-17T06:46:26.305Z,101696.43
2018-05-17T06:48:54.096Z,101691.84
2018-05-17T06:51:21.701Z,101693.20
2018-05-17T06:53:49.307Z,101696.30
2018-05-17T06:56:16.966Z,101695.00
2018-05-17T06:58:44.588Z,101701.09
2018-05-17T07:01:12.396Z,101696.31
2018-05-17T07:03:39.911Z,101692.98
2018-05-17T07:06:07.556Z,101698.44
2018-05-17T07:08:35.219Z,101701.77
2018-05-17T07:11:02.908Z,101698.94
2018-05-17T07:13:30.531Z,101698.67
2018-05-17T07:15:58.169Z,101705.21
2018-05-17T07:18:25.875Z,101706.84
2018-05-17T07:20:53.449Z,101710.77
2018-05-17T07:23:21.062Z,101707.72
2018-05-17T07:25:48.697Z,101706.62
2018-05-17T07:28:16.313Z,101700.90
2018-05-17T07:30:43.977Z,101702.25
2018-05-17T07:33:11.604Z,101704.25
2018-05-17T07:35:39.312Z,101706.23
2018-05-17T07:38:06.917Z,101712.02
2018-05-17T07:40:34.527Z,101715.20
2018-05-17T07:43:02.161Z,101717.55
2018-05-17T07:45:29.909Z,101726.03
2018-05-17T07:47:57.573Z,101724.62
2018-05-17T07:50:25.279Z,101726.13
2018-05-17T07:52:53.056Z,101726.23
2018-05-17T07:55:20.738Z,101725.77
2018-05-17T07:57:48.449Z,101720.45
2018-05-17T08:00:16.066Z,101715.45
2018-05-17T08:02:43.792Z,101721.21
2018-05-17T08:05:11.393Z,101718.05
2018-05-17T08:07:39.065Z,101713.08
2018-05-17T08:10:06.689Z,101711.40
2018-05-17T08:12:34.341Z,101721.37
2018-05-17T08:15:01.968Z,101717.83
2018-05-17T08:17:29.661Z,101720.09
2018-05-17T08:19:57.260Z,101717.19
2018-05-17T08:22:24.860Z,101726.67
2018-05-17T08:24:52.575Z,101720.27
2018-05-17T08:27:20.174Z,101727.17
2018-05-17T08:29:47.833Z,101723.05
2018-05-17T08:32:15.433Z,101722.64
2018-05-17T08:34:43.075Z,101725.37
2018-05-17T08:37:10.765Z,101723.36
2018-05-17T08:39:38.348Z,101723.34
2018-05-17T08:42:05.990Z,101718.31
2018-05-17T08:44:33.909Z,101720.69
2018-05-17T08:47:01.521Z,101724.77
2018-05-17T08:49:29.124Z,101722.31
2018-05-17T08:51:57.465Z,101723.75
2018-05-17T08:54:25.100Z,101728.95
2018-05-17T08:56:52.730Z,101733.19
2018-05-17T08:59:20.340Z,101723.36
2018-05-17T09:01:48.051Z,101724.85
2018-05-17T09:04:15.653Z,101721.49
2018-05-17T09:06:43.296Z,101723.73
2018-05-17T09:09:10.897Z,101720.53
2018-05-17T09:11:38.537Z,101728.09
2018-05-17T09:14:06.298Z,101722.62
2018-05-17T09:16:33.963Z,101725.53
2018-05-17T09:19:01.567Z,101726.67
2018-05-17T09:21:29.180Z,101724.20
2018-05-17T09:23:56.822Z,101724.53
2018-05-17T09:26:24.460Z,101718.91
2018-05-17T09:28:52.093Z,101720.78
2018-05-17T09:31:19.718Z,101722.86
2018-05-17T09:33:47.352Z,101718.50
2018-05-17T09:36:14.953Z,101729.84
2018-05-17T09:38:42.593Z,101729.98
2018-05-17T09:41:10.432Z,101733.31
2018-05-17T09:43:38.122Z,101734.17
2018-05-17T09:46:05.730Z,101724.57
2018-05-17T09:48:33.459Z,101730.32
2018-05-17T09:51:01.082Z,101727.88
2018-05-17T09:53:28.736Z,101727.95
2018-05-17T09:55:56.369Z,101726.00
2018-05-17T09:58:24.133Z,101719.16
2018-05-17T10:00:51.761Z,101722.84
2018-05-17T10:03:19.430Z,101722.15
2018-05-17T10:05:47.048Z,101715.07
2018-05-17T10:08:14.732Z,101728.61
2018-05-17T10:10:42.468Z,101712.21
2018-05-17T10:13:10.070Z,101714.34
2018-05-17T10:15:37.937Z,101713.10
2018-05-17T10:18:05.522Z,101721.14
2018-05-17T10:20:33.186Z,101718.36
2018-05-17T10:23:00.849Z,101715.16
2018-05-17T10:25:28.480Z,101716.30
2018-05-17T10:27:56.160Z,101724.09
2018-05-17T10:30:23.811Z,101709.68
2018-05-17T10:32:51.446Z,101709.76
2018-05-17T10:35:19.118Z,101710.22
2018-05-17T10:37:46.725Z,101712.34
2018-05-17T10:40:15.319Z,101708.55
2018-05-17T10:42:42.933Z,101709.44
2018-05-17T10:45:10.569Z,101706.73
2018-05-17T10:47:38.192Z,101703.31
2018-05-17T10:50:05.953Z,101705.64
2018-05-17T10:52:33.648Z,101701.48
2018-05-17T10:55:01.297Z,101707.34
2018-05-17T10:57:28.889Z,101697.33
2018-05-17T10:59:56.617Z,101695.62
2018-05-17T11:02:24.247Z,101693.12
2018-05-17T11:04:51.836Z,101700.58
2018-05-17T11:07:19.560Z,101691.26
2018-05-17T11:09:47.171Z,101694.20
2018-05-17T11:12:14.839Z,101691.80
2018-05-17T11:14:42.430Z,101687.05
2018-05-17T11:17:10.061Z,101685.28
2018-05-17T11:19:37.665Z,101693.40
2018-05-17T11:22:05.365Z,101691.41
2018-05-17T11:24:32.965Z,101686.80
2018-05-17T11:27:00.609Z,101696.34
2018-05-17T11:29:28.240Z,101677.73
2018-05-17T11:31:55.928Z,101680.91
2018-05-17T11:34:23.556Z,101675.86
2018-05-17T11:36:51.225Z,101682.00
2018-05-17T11:39:18.821Z,101675.72
2018-05-17T11:41:46.436Z,101669.27
2018-05-17T11:44:14.329Z,101675.17
2018-05-17T11:46:41.840Z,101667.00
2018-05-17T11:49:09.487Z,101668.61
2018-05-17T11:51:37.080Z,101660.56
2018-05-17T11:54:04.762Z,101673.61
2018-05-17T11:56:32.510Z,101662.33
2018-05-17T11:59:00.136Z,101666.85
2018-05-17T12:01:27.802Z,101671.28
2018-05-17T12:03:55.401Z,101666.77
2018-05-17T12:06:23.025Z,101666.08
2018-05-17T12:08:50.664Z,101669.23
2018-05-17T12:11:18.273Z,101663.89
2018-05-17T12:13:46.000Z,101657.44
2018-05-17T12:16:13.623Z,101665.58
2018-05-17T12:18:41.374Z,101653.38
2018-05-17T12:21:08.994Z,101653.53
2018-05-17T12:23:36.584Z,101646.95
2018-05-17T12:26:04.246Z,101642.55
2018-05-17T12:28:31.870Z,101637.44
2018-05-17T12:30:59.525Z,101633.19
2018-05-17T12:33:27.140Z,101630.84
2018-05-17T12:35:54.869Z,101638.64
2018-05-17T12:38:22.468Z,101636.76
2018-05-17T12:40:50.276Z,101633.44
2018-05-17T12:43:17.878Z,101631.25
2018-05-17T12:45:45.520Z,101631.81
2018-05-17T12:48:13.185Z,101635.45
2018-05-17T12:50:40.837Z,101636.54
2018-05-17T12:53:08.541Z,101636.76
2018-05-17T12:55:36.197Z,101637.75
2018-05-17T12:58:03.813Z,101632.48
2018-05-17T13:00:31.405Z,101627.41
2018-05-17T13:02:59.052Z,101635.78
2018-05-17T13:05:26.652Z,101633.08
2018-05-17T13:07:54.313Z,101633.22
2018-05-17T13:10:21.956Z,101630.42
2018-05-17T13:12:49.591Z,101622.48
2018-05-17T13:15:17.192Z,101627.45
2018-05-17T13:17:44.853Z,101615.42
2018-05-17T13:20:12.538Z,101620.19
2018-05-17T13:22:40.196Z,101618.70
2018-05-17T13:25:07.923Z,101617.80
2018-05-17T13:27:35.612Z,101611.38
2018-05-17T13:30:03.212Z,101605.00
2018-05-17T13:32:30.853Z,101614.59
2018-05-17T13:34:59.412Z,101605.16
2018-05-17T13:37:27.142Z,101616.06
2018-05-17T13:39:54.678Z,101607.33
2018-05-17T13:42:22.352Z,101603.34
2018-05-17T13:44:50.246Z,101592.84
2018-05-17T13:47:17.864Z,101604.11
2018-05-17T13:49:45.524Z,101600.33
2018-05-17T13:52:13.148Z,101597.67
2018-05-17T13:54:40.797Z,101600.44
2018-05-17T13:57:08.437Z,101588.95
2018-05-17T13:59:36.068Z,101594.94
2018-05-17T14:02:03.672Z,101595.70
2018-05-17T14:04:31.392Z,101589.47
2018-05-17T14:06:59.005Z,101587.64
2018-05-17T14:09:27.418Z,101577.48
2018-05-17T14:11:55.756Z,101579.92
2018-05-17T14:14:23.429Z,101584.94
2018-05-17T14:16:51.089Z,101580.67
2018-05-17T14:19:18.769Z,101579.59
2018-05-17T14:21:46.379Z,101578.23
2018-05-17T14:24:14.158Z,101578.22
2018-05-17T14:26:41.833Z,101577.70
2018-05-17T14:29:09.435Z,101579.00
2018-05-17T14:31:37.084Z,101579.19
2018-05-17T14:34:04.702Z,101577.09
2018-05-17T14:36:32.369Z,101577.19
2018-05-17T14:38:59.982Z,101576.20
2018-05-17T14:41:27.714Z,101578.26
2018-05-17T14:43:55.325Z,101574.02
2018-05-17T14:46:22.977Z,101570.96
2018-05-17T14:48:50.746Z,101573.59
2018-05-17T14:51:18.433Z,101573.51
2018-05-17T14:53:46.035Z,101570.54
2018-05-17T14:56:13.704Z,101564.38
2018-05-17T14:58:41.307Z,101571.44
2018-05-17T15:01:09.017Z,101567.88
2018-05-17T15:03:36.594Z,101572.31
2018-05-17T15:06:04.227Z,101567.97
2018-05-17T15:08:31.893Z,101569.19
2018-05-17T15:10:59.497Z,101569.61
2018-05-17T15:13:27.247Z,101566.55
2018-05-17T15:15:54.857Z,101573.18
2018-05-17T15:18:22.513Z,101573.13
2018-05-17T15:20:50.196Z,101561.78
2018-05-17T15:23:17.881Z,101567.48
2018-05-17T15:25:45.477Z,101562.20
2018-05-17T15:28:13.117Z,101565.27
2018-05-17T15:30:40.938Z,101565.30
2018-05-17T15:33:08.573Z,101562.16
2018-05-17T15:35:36.193Z,101565.75
2018-05-17T15:38:03.808Z,101566.09
2018-05-17T15:40:31.454Z,101562.16
2018-05-17T15:42:59.336Z,101559.95
2018-05-17T15:45:26.983Z,101553.80
2018-05-17T15:47:54.598Z,101546.30
2018-05-17T15:50:22.364Z,101554.65
2018-05-17T15:52:49.975Z,101544.05
2018-05-17T15:55:17.664Z,101545.37
2018-05-17T15:57:45.256Z,101547.53
2018-05-17T16:00:12.896Z,101547.58
2018-05-17T16:02:40.630Z,101544.99
2018-05-17T16:05:08.539Z,101547.07
2018-05-17T16:07:36.224Z,101543.17
2018-05-17T16:10:04.072Z,101541.44
2018-05-17T16:12:31.769Z,101537.00
2018-05-17T16:14:59.420Z,101540.09
2018-05-17T16:17:27.044Z,101536.99
2018-05-17T16:19:54.672Z,101533.03
2018-05-17T16:22:22.299Z,101531.30
2018-05-17T16:24:49.902Z,101535.69
2018-05-17T16:27:17.552Z,101534.86
2018-05-17T16:29:45.154Z,101540.59
2018-05-17T16:32:12.856Z,101543.17
2018-05-17T16:34:40.492Z,101546.22
2018-05-17T16:37:08.228Z,101545.37
2018-05-17T16:39:35.839Z,101547.53
2018-05-17T16:42:03.566Z,101540.47
2018-05-17T16:44:31.163Z,101543.45
2018-05-17T16:46:58.984Z,101540.30
2018-05-17T16:49:26.605Z,101540.35
2018-05-17T16:51:54.197Z,101542.14
2018-05-17T16:54:21.943Z,101538.56
2018-05-17T16:56:49.527Z,101545.73
2018-05-17T16:59:17.183Z,101550.84
2018-05-17T17:01:44.876Z,101551.25
2018-05-17T17:04:12.529Z,101554.28
2018-05-17T17:06:40.137Z,101551.09
2018-05-17T17:09:07.780Z,101554.96
2018-05-17T17:11:35.372Z,101550.22
2018-05-17T17:14:03.033Z,101555.34
2018-05-17T17:16:30.683Z,101563.64
2018-05-17T17:18:58.322Z,101555.87
2018-05-17T17:21:25.961Z,101564.59
2018-05-17T17:23:53.677Z,101563.10
2018-05-17T17:26:21.219Z,101571.36
2018-05-17T17:28:48.877Z,101576.42
2018-05-17T17:31:16.487Z,101577.62
2018-05-17T17:33:44.205Z,101574.98
2018-05-17T17:36:11.807Z,101573.25
2018-05-17T17:38:39.430Z,101576.37
2018-05-17T17:41:07.088Z,101574.90
2018-05-17T17:43:34.733Z,101578.98
2018-05-17T17:46:03.243Z,101579.34
2018-05-17T17:48:30.945Z,101583.20
2018-05-17T17:50:58.611Z,101577.67
2018-05-17T17:53:26.322Z,101575.77
2018-05-17T17:55:53.925Z,101577.30
2018-05-17T17:58:21.611Z,101579.02
2018-05-17T18:00:49.299Z,101575.52
2018-05-17T18:03:16.910Z,101576.70
2018-05-17T18:05:45.054Z,101585.17
2018-05-17T18:08:12.665Z,101584.77
2018-05-17T18:10:40.321Z,101582.69
2018-05-17T18:13:07.936Z,101585.16
2018-05-17T18:15:35.600Z,101593.74
2018-05-17T18:18:03.821Z,101590.27
2018-05-17T18:20:31.584Z,101591.82
2018-05-17T18:22:59.213Z,101595.75
2018-05-17T18:25:26.816Z,101600.44
2018-05-17T18:27:54.469Z,101600.95
2018-05-17T18:30:22.239Z,101600.08
2018-05-17T18:32:49.906Z,101604.02
2018-05-17T18:35:17.510Z,101605.82
2018-05-17T18:37:45.174Z,101609.14
2018-05-17T18:40:12.785Z,101605.90
2018-05-17T18:42:40.560Z,101601.91
2018-05-17T18:45:08.166Z,101605.63
2018-05-17T18:47:35.820Z,101605.87
2018-05-17T18:50:03.454Z,101616.86
2018-05-17T18:52:31.713Z,101622.74
2018-05-17T18:54:59.325Z,101620.56
2018-05-17T18:57:26.990Z,101623.82
2018-05-17T18:59:54.598Z,101628.72
2018-05-17T19:02:22.395Z,101631.78
2018-05-17T19:04:49.992Z,101635.40
2018-05-17T19:07:17.617Z,101641.77
2018-05-17T19:09:45.257Z,101649.41
2018-05-17T19:12:12.905Z,101650.55
2018-05-17T19:14:40.540Z,101659.83
2018-05-17T19:17:08.187Z,101663.89
2018-05-17T19:19:35.916Z,101664.25
2018-05-17T19:22:03.537Z,101663.81
2018-05-17T19:24:31.175Z,101665.41
2018-05-17T19:26:58.788Z,101676.06
2018-05-17T19:29:26.524Z,101671.57
2018-05-17T19:31:54.138Z,101676.69
2018-05-17T19:34:21.981Z,101672.96
2018-05-17T19:36:49.670Z,101683.58
2018-05-17T19:39:17.607Z,101690.17
2018-05-17T19:41:45.273Z,101684.13
2018-05-17T19:44:12.952Z,101689.80
2018-05-17T19:46:40.598Z,101693.52
2018-05-17T19:49:08.217Z,101696.48
2018-05-17T19:51:35.907Z,101701.50
2018-05-17T19:54:03.534Z,101699.24
2018-05-17T19:56:31.209Z,101707.19
2018-05-17T19:58:58.829Z,101709.81
2018-05-17T20:01:26.500Z,101709.09
2018-05-17T20:03:54.131Z,101715.05
2018-05-17T20:06:21.834Z,101716.02
2018-05-17T20:08:49.444Z,101717.10
2018-05-17T20:11:17.187Z,101721.23
2018-05-17T20:13:44.733Z,101728.06
2018-05-17T20:16:12.477Z,101719.94
2018-05-17T20:18:40.181Z,101727.95
2018-05-17T20:21:07.791Z,101729.92
2018-05-17T20:23:35.417Z,101734.70
2018-05-17T20:26:03.079Z,101729.48
2018-05-17T20:28:30.720Z,101726.30
2018-05-17T20:30:58.398Z,101733.89
2018-05-17T20:33:26.016Z,101727.97
2018-05-17T20:35:53.660Z,101726.00
2018-05-17T20:38:21.296Z,101730.71
2018-05-17T20:40:48.920Z,101740.20
2018-05-17T20:43:16.559Z,101732.02
2018-05-17T20:45:44.246Z,101741.08
2018-05-17T20:48:11.894Z,101741.39
2018-05-17T20:50:39.556Z,101740.75
2018-05-17T20:53:07.202Z,101745.11
2018-05-17T20:55:34.835Z,101748.66
2018-05-17T20:58:02.486Z,101749.61
2018-05-17T21:00:30.174Z,101755.95
2018-05-17T21:02:57.826Z,101751.42
2018-05-17T21:05:25.445Z,101754.31
2018-05-17T21:07:53.134Z,101754.20
2018-05-17T21:10:20.865Z,101761.57
2018-05-17T21:12:48.543Z,101760.47
2018-05-17T21:15:16.075Z,101759.74
2018-05-17T21:17:43.729Z,101766.86
2018-05-17T21:20:11.372Z,101762.91
2018-05-17T21:22:39.008Z,101764.16
2018-05-17T21:25:06.702Z,101767.61
2018-05-17T21:27:34.313Z,101766.64
2018-05-17T21:30:02.210Z,101771.39
2018-05-17T21:32:29.806Z,101776.88
2018-05-17T21:34:57.450Z,101777.38
2018-05-17T21:37:25.091Z,101769.89
2018-05-17T21:39:52.749Z,101769.02
2018-05-17T21:42:20.360Z,101773.81
2018-05-17T21:44:48.043Z,101771.58
2018-05-17T21:47:15.613Z,101771.88
2018-05-17T21:49:43.261Z,101775.73
2018-05-17T21:52:10.896Z,101775.63
2018-05-17T21:54:39.540Z,101776.78
2018-05-17T21:57:07.168Z,101771.56
2018-05-17T21:59:34.828Z,101770.72
2018-05-17T22:02:02.450Z,101779.21
2018-05-17T22:04:30.168Z,101779.76
2018-05-17T22:06:57.794Z,101785.52
2018-05-17T22:09:25.402Z,101783.77
2018-05-17T22:11:53.097Z,101786.55
2018-05-17T22:14:20.684Z,101786.00
2018-05-17T22:16:48.333Z,101786.52
2018-05-17T22:19:15.928Z,101791.40
2018-05-17T22:21:43.569Z,101796.11
2018-05-17T22:24:11.189Z,101795.27
2018-05-17T22:26:38.844Z,101795.12
2018-05-17T22:29:06.497Z,101796.67
2018-05-17T22:31:34.180Z,101793.51
2018-05-17T22:34:01.809Z,101791.27
2018-05-17T22:36:29.479Z,101792.93
2018-05-17T22:38:57.079Z,101789.03
2018-05-17T22:41:24.819Z,101794.57
2018-05-17T22:43:52.417Z,101790.72
2018-05-17T22:46:20.084Z,101793.61
2018-05-17T22:48:49.332Z,101790.06
2018-05-17T22:51:16.982Z,101794.19
2018-05-17T22:53:44.597Z,101785.27
2018-05-17T23:09:38.588Z,101780.17
2018-05-17T23:12:06.914Z,101781.63
2018-05-17T23:14:34.525Z,101777.95
2018-05-17T23:17:02.219Z,101780.81
2018-05-17T23:19:29.838Z,101775.27
2018-05-17T23:21:57.521Z,101780.77
2018-05-17T23:24:25.228Z,101778.13
2018-05-17T23:26:53.701Z,101778.30
2018-05-17T23:29:21.440Z,101773.38
2018-05-17T23:31:49.054Z,101775.05
2018-05-17T23:34:16.689Z,101774.28
2018-05-17T23:36:44.882Z,101775.42
2018-05-17T23:39:12.526Z,101779.47
2018-05-17T23:41:45.995Z,101766.46
2018-05-17T23:44:13.637Z,101762.58
2018-05-17T23:46:41.249Z,101769.13
2018-05-17T23:49:08.929Z,101770.27
2018-05-17T23:51:36.529Z,101768.33
2018-05-17T23:54:04.203Z,101773.11
2018-05-17T23:56:31.849Z,101771.55
2018-05-17T23:58:59.511Z,101774.59
